Shirley Basin, Wyoming
Current Conditions -  °F | °C
As of 12:53 PM on Thursday 18 Dec 2014 (Local Time) from KCPR Reporting Station
Clear Clear  
Wind Chill: 18°   Ceiling: Unl
Heat Index: 29°   Visibility: 10mi
Dew Point: 20°   Wind: 14mph
Humidity: 69%   Direction: 220°SW
Pressure: 30.03"   Gusts: NA
Location:  42.85°N, 106.31°W
Report Text: KCPR 181953Z 22012KT 10SM CLR M02/M07 A3003 RMK AO2 SLP203 T10171067
Loading
Personal Weather Stations






























Interactive Weather Map New forecast layout! Learn more

10-Day Weather Forecast

Advertisements
Track Severe Weather on mobile